Time;durP1;ratioP1;P1;durP2;ratioP2;P2;SDS_P1;SDS_P2;PMS_P1;PMS_P2;Temp;Humidity;BMP_temperature;BMP_pressure;BME280_temperature;BME280_humidity;BME280_pressure;Samples;Min_cycle;Max_cycle;Signal;HPM_P1;HPM_P2
2021/06/09 00:02:22;;;;;;;8.30;6.30;;;21.50;78.10;;;;;;5072879;28;20460;-87
2021/06/09 00:04:48;;;;;;;8.60;6.88;;;21.50;78.50;;;;;;5050372;28;20055;-87
2021/06/09 00:07:14;;;;;;;7.28;6.47;;;21.40;78.40;;;;;;5037805;28;20091;-87
2021/06/09 00:09:39;;;;;;;7.45;6.65;;;21.40;78.10;;;;;;5044152;28;20063;-87
2021/06/09 00:12:06;;;;;;;8.10;7.30;;;21.40;78.50;;;;;;5025360;28;20108;-87
2021/06/09 00:14:31;;;;;;;8.52;7.63;;;21.30;78.30;;;;;;5051067;28;20052;-87
2021/06/09 00:16:58;;;;;;;8.27;7.18;;;21.30;78.30;;;;;;5085649;28;20025;-87
2021/06/09 00:19:25;;;;;;;9.27;8.00;;;21.20;78.60;;;;;;5038143;28;20036;-87
2021/06/09 00:21:53;;;;;;;9.30;8.10;;;21.20;78.70;;;;;;5034656;28;20029;-87
2021/06/09 00:24:20;;;;;;;10.55;7.40;;;21.20;78.80;;;;;;5046401;28;20416;-87
2021/06/09 00:26:46;;;;;;;8.25;7.32;;;21.10;79.00;;;;;;5041994;28;20115;-87
2021/06/09 00:29:12;;;;;;;8.80;7.47;;;21.10;79.20;;;;;;5064273;28;20070;-87
2021/06/09 00:31:38;;;;;;;9.13;7.75;;;21.10;79.40;;;;;;5039601;28;20364;-87
2021/06/09 00:34:04;;;;;;;8.50;7.50;;;21.00;79.70;;;;;;5066175;28;20023;-86
2021/06/09 00:36:30;;;;;;;9.85;7.93;;;21.00;79.50;;;;;;5051706;28;20020;-85
2021/06/09 00:38:56;;;;;;;8.75;7.68;;;21.00;79.60;;;;;;5026822;28;20024;-87
2021/06/09 00:41:21;;;;;;;8.93;7.50;;;20.90;79.50;;;;;;5029610;28;20576;-87
2021/06/09 00:43:47;;;;;;;8.95;7.28;;;20.90;79.90;;;;;;5017570;28;20386;-87
2021/06/09 00:46:13;;;;;;;9.68;7.85;;;20.90;80.10;;;;;;5027598;28;20028;-87
2021/06/09 00:48:41;;;;;;;9.90;7.40;;;20.80;80.20;;;;;;5037221;28;20039;-87
2021/06/09 00:51:17;;;;;;;9.48;7.90;;;20.80;80.40;;;;;;5062228;28;20466;-87
2021/06/09 00:54:05;;;;;;;8.93;7.75;;;20.80;80.50;;;;;;5058811;28;20044;-87
2021/06/09 00:56:33;;;;;;;9.63;7.90;;;20.80;80.50;;;;;;5046973;28;20025;-88
2021/06/09 00:58:59;;;;;;;9.18;7.97;;;20.70;80.60;;;;;;5050125;28;20033;-87
2021/06/09 01:01:27;;;;;;;8.73;7.72;;;20.70;80.80;;;;;;5037380;28;20190;-87
2021/06/09 01:03:53;;;;;;;8.65;7.75;;;20.60;80.80;;;;;;5037615;28;20107;-87
2021/06/09 01:06:20;;;;;;;9.25;8.25;;;20.60;81.00;;;;;;5053904;28;20037;-87
2021/06/09 01:08:46;;;;;;;9.95;7.95;;;20.60;81.30;;;;;;5034183;28;20099;-87
2021/06/09 01:11:16;;;;;;;8.75;7.85;;;20.50;81.40;;;;;;5054035;28;20029;-87
2021/06/09 01:13:42;;;;;;;8.73;7.82;;;20.50;81.30;;;;;;5059894;23;20044;-90
2021/06/09 01:16:08;;;;;;;9.45;8.20;;;20.50;81.60;;;;;;5031526;28;20033;-90
2021/06/09 01:18:35;;;;;;;9.25;7.82;;;20.50;81.60;;;;;;5055025;28;20024;-90
2021/06/09 01:21:03;;;;;;;10.00;8.45;;;20.50;81.90;;;;;;5025357;28;20488;-90
2021/06/09 01:23:29;;;;;;;8.48;7.57;;;20.40;81.90;;;;;;5041440;28;20025;-90
2021/06/09 01:25:56;;;;;;;9.15;8.23;;;20.40;81.80;;;;;;5047122;28;20131;-90
2021/06/09 01:28:22;;;;;;;9.13;8.13;;;20.40;81.30;;;;;;5077645;28;20024;-89
2021/06/09 01:30:48;;;;;;;10.63;8.65;;;20.30;82.10;;;;;;5061862;28;20016;-90
2021/06/09 01:33:15;;;;;;;9.27;8.38;;;20.30;81.70;;;;;;5075144;28;20465;-90
2021/06/09 01:35:43;;;;;;;9.27;8.38;;;20.30;81.80;;;;;;5062479;28;20024;-90
2021/06/09 01:38:09;;;;;;;10.18;8.65;;;20.20;81.70;;;;;;5062151;28;20035;-90
2021/06/09 01:40:35;;;;;;;9.73;8.70;;;20.20;81.50;;;;;;5061507;28;20023;-90
2021/06/09 01:43:02;;;;;;;11.52;8.88;;;20.20;81.80;;;;;;5042378;28;20033;-90
2021/06/09 01:45:32;;;;;;;9.82;8.82;;;20.10;81.90;;;;;;5048575;28;20029;-90
2021/06/09 01:47:59;;;;;;;10.13;8.57;;;20.10;81.80;;;;;;5078415;28;20082;-90
2021/06/09 01:50:26;;;;;;;11.27;8.88;;;20.10;82.00;;;;;;5061485;28;20116;-90
2021/06/09 01:52:53;;;;;;;11.57;9.23;;;20.10;82.20;;;;;;5064374;28;20020;-90
2021/06/09 01:55:21;;;;;;;10.60;9.50;;;20.00;82.50;;;;;;5049804;28;20020;-90
2021/06/09 01:57:47;;;;;;;11.13;9.80;;;20.00;82.50;;;;;;5080540;28;20455;-90
2021/06/09 02:00:19;;;;;;;11.13;9.57;;;20.00;82.50;;;;;;5078176;28;20063;-90
2021/06/09 02:02:46;;;;;;;10.45;9.35;;;19.90;82.50;;;;;;5064004;28;20051;-90
2021/06/09 02:05:12;;;;;;;11.02;9.50;;;19.90;82.50;;;;;;5068823;28;20048;-90
2021/06/09 02:07:43;;;;;;;10.43;9.23;;;19.90;82.70;;;;;;5059310;28;20029;-90
2021/06/09 02:10:12;;;;;;;12.15;9.85;;;19.90;82.80;;;;;;5037099;28;20024;-90
2021/06/09 02:12:41;;;;;;;10.40;9.30;;;19.90;83.00;;;;;;5058065;28;20027;-90
2021/06/09 02:18:28;;;;;;;10.07;9.02;;;19.80;83.50;;;;;;5080870;28;20082;-90
2021/06/09 02:20:57;;;;;;;12.20;10.02;;;19.70;83.50;;;;;;5077225;28;20473;-90
2021/06/09 02:23:25;;;;;;;12.13;9.50;;;19.70;83.50;;;;;;5069642;28;20068;-90
2021/06/09 02:25:53;;;;;;;10.25;8.90;;;19.70;83.40;;;;;;5082934;28;20397;-90
2021/06/09 02:28:25;;;;;;;11.65;9.07;;;19.70;83.50;;;;;;5071610;28;20024;-90
2021/06/09 02:30:51;;;;;;;8.88;7.97;;;19.70;83.50;;;;;;5050713;28;20024;-89
2021/06/09 02:33:20;;;;;;;11.02;8.70;;;19.70;83.40;;;;;;5061144;28;20024;-90
2021/06/09 02:35:46;;;;;;;11.98;9.48;;;19.60;83.50;;;;;;5063022;28;20107;-90
2021/06/09 02:38:13;;;;;;;11.77;9.20;;;19.60;83.40;;;;;;5077736;28;20115;-90
2021/06/09 02:40:41;;;;;;;11.77;10.15;;;19.60;83.50;;;;;;5074421;28;20063;-90
2021/06/09 02:43:08;;;;;;;12.13;10.55;;;19.50;84.00;;;;;;5084722;28;20023;-90
2021/06/09 02:45:34;;;;;;;11.20;9.95;;;19.50;84.30;;;;;;5060806;28;20036;-90
2021/06/09 02:48:06;;;;;;;11.07;9.68;;;19.40;84.10;;;;;;5068564;28;20027;-90
2021/06/09 02:50:33;;;;;;;11.27;9.57;;;19.40;84.10;;;;;;5071643;28;20031;-90
2021/06/09 02:53:10;;;;;;;11.75;9.38;;;19.40;84.10;;;;;;5049583;28;20097;-90
2021/06/09 02:56:00;;;;;;;11.27;10.07;;;19.30;84.40;;;;;;5077457;28;20054;-90
2021/06/09 02:58:42;;;;;;;11.98;9.65;;;19.30;84.50;;;;;;5059497;28;20057;-90
2021/06/09 03:01:29;;;;;;;12.25;10.32;;;19.30;84.80;;;;;;5068514;28;20021;-90
2021/06/09 03:04:15;;;;;;;11.18;10.00;;;19.30;84.80;;;;;;5069577;28;20050;-90
2021/06/09 03:06:55;;;;;;;11.18;10.02;;;19.20;85.00;;;;;;5051029;28;20048;-90
2021/06/09 03:09:33;;;;;;;11.85;10.65;;;19.20;85.20;;;;;;5077152;28;20028;-90
2021/06/09 03:12:29;;;;;;;11.35;10.15;;;19.20;85.40;;;;;;5070943;28;20016;-90
2021/06/09 03:15:13;;;;;;;12.32;10.25;;;19.20;85.80;;;;;;5084428;28;20511;-89
2021/06/09 03:18:05;;;;;;;12.73;10.68;;;19.20;85.80;;;;;;5084801;28;20024;-90
2021/06/09 03:20:45;;;;;;;11.15;9.95;;;19.20;85.90;;;;;;5057971;28;20032;-90
2021/06/09 03:23:39;;;;;;;11.65;9.98;;;19.10;86.00;;;;;;5080484;28;20031;-89
2021/06/09 03:26:47;;;;;;;12.23;10.93;;;19.10;85.80;;;;;;5073533;28;20059;-90
2021/06/09 03:29:44;;;;;;;10.88;9.70;;;19.10;86.20;;;;;;5059215;28;20123;-90
2021/06/09 03:32:17;;;;;;;12.98;11.60;;;19.00;86.20;;;;;;5073129;28;20020;-90
2021/06/09 03:34:48;;;;;;;12.27;10.98;;;19.00;86.30;;;;;;5056963;28;20520;-90
2021/06/09 03:37:20;;;;;;;14.98;12.27;;;19.00;86.20;;;;;;5070718;28;20021;-90
2021/06/09 03:39:47;;;;;;;11.88;10.68;;;19.00;86.10;;;;;;5039874;28;20024;-89
2021/06/09 03:42:17;;;;;;;13.52;10.68;;;18.90;86.30;;;;;;5044637;28;20024;-90
2021/06/09 03:44:55;;;;;;;11.43;10.20;;;18.90;86.10;;;;;;5065527;28;20950;-90
2021/06/09 03:47:21;;;;;;;13.02;11.43;;;18.90;86.30;;;;;;5063609;28;20032;-90
2021/06/09 03:49:49;;;;;;;12.52;11.25;;;18.80;86.30;;;;;;5073004;28;20052;-90
2021/06/09 03:52:16;;;;;;;12.50;10.95;;;18.80;86.60;;;;;;5065420;28;20055;-90
2021/06/09 03:54:46;;;;;;;12.95;10.90;;;18.80;86.70;;;;;;5076226;28;20062;-90
2021/06/09 03:57:14;;;;;;;12.90;11.60;;;18.80;86.80;;;;;;5068840;28;20021;-90
2021/06/09 03:59:41;;;;;;;12.77;11.30;;;18.80;86.90;;;;;;5066290;28;20028;-90
2021/06/09 04:02:08;;;;;;;13.18;11.80;;;18.70;87.10;;;;;;5059084;28;20078;-90
2021/06/09 04:04:36;;;;;;;12.80;11.50;;;18.70;87.10;;;;;;5060631;28;20036;-90
2021/06/09 04:07:09;;;;;;;14.30;11.48;;;18.70;87.10;;;;;;5058581;28;20020;-90
2021/06/09 04:09:36;;;;;;;13.52;12.13;;;18.70;87.40;;;;;;5068106;28;20150;-90
2021/06/09 04:12:04;;;;;;;13.48;11.05;;;18.70;87.50;;;;;;5072964;28;20040;-89
2021/06/09 04:14:45;;;;;;;12.70;11.40;;;18.70;87.60;;;;;;5063617;28;20041;-90
2021/06/09 04:17:13;;;;;;;12.88;11.57;;;18.60;87.90;;;;;;5069847;28;20020;-89
2021/06/09 04:19:45;;;;;;;11.90;10.60;;;18.60;87.80;;;;;;5066697;28;20028;-90
2021/06/09 04:22:11;;;;;;;13.60;11.40;;;18.60;88.00;;;;;;5062018;28;20059;-90
2021/06/09 04:24:39;;;;;;;13.73;11.52;;;18.60;88.20;;;;;;5076153;28;20028;-90
2021/06/09 04:27:12;;;;;;;13.73;11.88;;;18.60;88.30;;;;;;5072820;28;20024;-89
2021/06/09 04:29:39;;;;;;;13.40;11.77;;;18.60;88.50;;;;;;5062903;28;20028;-90
2021/06/09 04:32:08;;;;;;;14.48;12.05;;;18.60;88.60;;;;;;5035743;28;20025;-90
2021/06/09 04:35:30;;;;;;;15.10;12.00;;;18.70;88.60;;;;;;5058366;28;20032;-90
2021/06/09 04:37:55;;;;;;;13.00;11.63;;;18.70;89.10;;;;;;5086155;28;20111;-90
2021/06/09 04:40:27;;;;;;;13.18;11.65;;;18.70;88.80;;;;;;5061286;28;20044;-89
2021/06/09 04:42:54;;;;;;;13.35;11.23;;;18.70;89.00;;;;;;5072641;28;20102;-90
2021/06/09 04:45:22;;;;;;;13.23;11.88;;;18.60;89.00;;;;;;5039003;28;20393;-90
2021/06/09 04:47:47;;;;;;;14.27;12.10;;;18.70;89.10;;;;;;5058325;28;20017;-90
2021/06/09 04:50:21;;;;;;;12.48;11.02;;;18.70;89.20;;;;;;5066075;28;20032;-90
2021/06/09 04:52:48;;;;;;;12.70;11.40;;;18.70;89.40;;;;;;5055847;28;20091;-90
2021/06/09 04:55:15;;;;;;;12.98;11.23;;;18.70;89.50;;;;;;5073388;28;20016;-89
2021/06/09 04:57:41;;;;;;;13.15;11.68;;;18.70;89.70;;;;;;5044530;28;20024;-89
2021/06/09 05:00:10;;;;;;;14.73;12.13;;;18.70;90.00;;;;;;5055653;28;20024;-89
2021/06/09 05:02:36;;;;;;;13.77;12.38;;;18.80;90.00;;;;;;5059092;28;20362;-90
2021/06/09 05:05:02;;;;;;;14.40;12.45;;;18.80;90.10;;;;;;5057732;28;20158;-90
2021/06/09 05:07:28;;;;;;;14.73;13.13;;;18.80;90.20;;;;;;5062124;28;20029;-90
2021/06/09 05:09:54;;;;;;;14.10;12.60;;;18.90;90.30;;;;;;5059357;28;20504;-90
2021/06/09 05:13:05;;;;;;;14.73;13.23;;;18.90;90.30;;;;;;5053492;28;20031;-90
2021/06/09 05:16:00;;;;;;;15.05;12.70;;;19.00;90.50;;;;;;5040129;28;20041;-90
2021/06/09 05:18:32;;;;;;;17.70;14.25;;;19.00;90.40;;;;;;5042519;28;20100;-90
2021/06/09 05:20:58;;;;;;;15.70;14.05;;;19.00;90.40;;;;;;5057230;28;20029;-90
2021/06/09 05:23:31;;;;;;;17.17;14.32;;;19.10;90.30;;;;;;5039592;28;20029;-90
2021/06/09 05:25:58;;;;;;;16.42;14.50;;;19.10;90.30;;;;;;5066466;28;20024;-90
2021/06/09 05:28:27;;;;;;;15.73;14.10;;;19.10;90.30;;;;;;5042540;28;20088;-90
2021/06/09 05:30:55;;;;;;;16.05;14.40;;;19.20;90.40;;;;;;5044918;28;20033;-90
2021/06/09 05:33:23;;;;;;;18.42;15.50;;;19.20;90.40;;;;;;5022858;28;20127;-90
2021/06/09 05:35:52;;;;;;;17.63;15.82;;;19.20;90.50;;;;;;5023197;28;20021;-90
2021/06/09 05:38:20;;;;;;;16.33;14.68;;;19.20;90.30;;;;;;5047092;28;20027;-90
2021/06/09 05:40:47;;;;;;;17.20;14.15;;;19.30;90.20;;;;;;5054277;28;20108;-90
2021/06/09 05:43:12;;;;;;;15.63;13.98;;;19.40;90.20;;;;;;5041093;28;20024;-90
2021/06/09 05:45:39;;;;;;;16.05;14.35;;;19.40;90.20;;;;;;5064275;28;20033;-90
2021/06/09 05:48:05;;;;;;;16.80;14.82;;;19.40;90.30;;;;;;5058760;28;20112;-90
2021/06/09 05:50:32;;;;;;;17.38;15.55;;;19.40;90.20;;;;;;5041671;28;20127;-89
2021/06/09 05:52:59;;;;;;;16.88;15.07;;;19.50;90.30;;;;;;5036016;28;20567;-90
2021/06/09 05:55:28;;;;;;;18.30;16.38;;;19.50;90.20;;;;;;5042337;28;20098;-89
2021/06/09 05:57:56;;;;;;;17.88;16.00;;;19.60;90.20;;;;;;5058538;28;20016;-90
2021/06/09 06:00:26;;;;;;;18.83;16.83;;;19.60;90.20;;;;;;5047454;28;20115;-90
2021/06/09 06:02:52;;;;;;;17.75;15.85;;;19.60;90.20;;;;;;5026160;28;20038;-90
2021/06/09 06:05:19;;;;;;;18.13;16.08;;;19.70;90.20;;;;;;5055891;28;20032;-90
2021/06/09 06:07:45;;;;;;;18.13;16.27;;;19.70;90.20;;;;;;5027583;28;20065;-89
2021/06/09 06:10:13;;;;;;;18.73;16.83;;;19.70;90.20;;;;;;5052403;28;20051;-89
2021/06/09 06:12:40;;;;;;;17.17;15.15;;;19.80;90.20;;;;;;5041875;28;20020;-89
2021/06/09 06:15:09;;;;;;;17.05;15.30;;;19.80;90.20;;;;;;5060092;28;20044;-91
2021/06/09 06:17:42;;;;;;;19.35;17.35;;;19.80;90.30;;;;;;5066682;28;20492;-92
2021/06/09 06:20:19;;;;;;;18.70;16.63;;;19.90;90.30;;;;;;5079041;28;20024;-92
2021/06/09 06:22:47;;;;;;;18.67;16.77;;;19.90;90.30;;;;;;5050988;28;20024;-89
2021/06/09 06:25:18;;;;;;;18.27;16.20;;;20.00;90.30;;;;;;5080037;28;20024;-90
2021/06/09 06:27:45;;;;;;;17.95;16.05;;;20.10;90.30;;;;;;5078060;28;20067;-90
2021/06/09 06:30:13;;;;;;;18.58;16.67;;;20.10;90.30;;;;;;5045891;28;20041;-90
2021/06/09 06:33:16;;;;;;;18.63;16.73;;;20.20;90.30;;;;;;5073819;28;20016;-89
2021/06/09 06:36:01;;;;;;;20.63;18.13;;;20.20;90.20;;;;;;5058259;28;20055;-89
2021/06/09 06:38:27;;;;;;;17.92;16.08;;;20.30;90.10;;;;;;5075566;28;20107;-90
2021/06/09 06:40:53;;;;;;;20.33;18.15;;;20.30;90.00;;;;;;5060727;28;20676;-90
2021/06/09 06:43:21;;;;;;;19.52;17.45;;;20.40;90.00;;;;;;5063450;28;20061;-90
2021/06/09 06:45:47;;;;;;;20.17;18.00;;;20.40;90.00;;;;;;5061508;28;20025;-90
2021/06/09 06:48:14;;;;;;;21.17;18.10;;;20.50;90.10;;;;;;5042451;28;20040;-89
2021/06/09 06:50:42;;;;;;;19.10;17.10;;;20.50;90.10;;;;;;5077344;28;20043;-89
2021/06/09 06:53:08;;;;;;;18.95;17.10;;;20.60;90.10;;;;;;5061225;28;20408;-90
2021/06/09 06:55:34;;;;;;;19.45;17.50;;;20.70;90.20;;;;;;5077190;28;20020;-89
2021/06/09 06:58:01;;;;;;;18.80;16.55;;;20.70;90.40;;;;;;5060536;28;20035;-90
2021/06/09 07:00:27;;;;;;;18.30;16.50;;;20.80;90.20;;;;;;5076927;28;20055;-90
2021/06/09 07:02:57;;;;;;;18.40;16.45;;;20.80;90.10;;;;;;5060600;28;20034;-90
2021/06/09 07:05:27;;;;;;;19.60;17.40;;;20.90;90.20;;;;;;5053425;28;20120;-90
2021/06/09 07:07:56;;;;;;;17.70;15.82;;;21.00;90.10;;;;;;5040280;28;20020;-89
2021/06/09 07:10:22;;;;;;;19.88;17.55;;;21.00;90.10;;;;;;5079053;28;20103;-90
2021/06/09 07:12:49;;;;;;;19.17;17.25;;;21.10;90.10;;;;;;5051812;22;20058;-88
2021/06/09 07:15:17;;;;;;;20.50;18.38;;;21.20;90.00;;;;;;5035589;28;20041;-88
2021/06/09 07:17:56;;;;;;;18.85;16.92;;;21.30;89.80;;;;;;5036133;28;20378;-88
2021/06/09 07:20:27;;;;;;;21.42;19.13;;;21.40;89.80;;;;;;5019764;28;20033;-89
2021/06/09 07:22:55;;;;;;;19.25;17.25;;;21.50;89.40;;;;;;5037014;28;20033;-89
2021/06/09 07:25:37;;;;;;;20.50;18.38;;;21.60;89.10;;;;;;5036037;28;20048;-88
2021/06/09 07:28:05;;;;;;;16.80;15.00;;;21.70;88.60;;;;;;5019626;28;20024;-90
2021/06/09 07:30:37;;;;;;;19.05;17.10;;;21.80;88.30;;;;;;5050393;28;20032;-88
2021/06/09 07:33:04;;;;;;;18.38;16.50;;;21.90;87.90;;;;;;5053220;28;20033;-89
2021/06/09 07:35:30;;;;;;;15.82;14.23;;;22.00;87.80;;;;;;5054634;28;20056;-89
2021/06/09 07:38:05;;;;;;;15.07;13.52;;;22.10;87.70;;;;;;5029117;28;20036;-88
2021/06/09 07:40:34;;;;;;;15.23;13.63;;;22.20;87.50;;;;;;5049314;28;20064;-88
2021/06/09 07:43:04;;;;;;;14.00;12.50;;;22.30;87.30;;;;;;5035448;28;20020;-88
2021/06/09 07:45:31;;;;;;;13.83;12.43;;;22.40;87.10;;;;;;5035299;28;20071;-88
2021/06/09 07:47:59;;;;;;;14.85;13.35;;;22.40;86.80;;;;;;5011563;28;20417;-88
2021/06/09 07:50:32;;;;;;;15.60;14.10;;;22.60;86.60;;;;;;5040370;28;20025;-88
2021/06/09 07:53:05;;;;;;;16.13;14.48;;;22.70;86.40;;;;;;5035691;28;20024;-89
2021/06/09 07:55:33;;;;;;;16.75;14.98;;;22.70;86.00;;;;;;5033724;28;20707;-89
2021/06/09 07:58:00;;;;;;;15.52;13.77;;;22.80;85.60;;;;;;5016144;28;20018;-88
2021/06/09 08:00:25;;;;;;;15.07;12.60;;;22.90;85.10;;;;;;5028685;28;20512;-88
2021/06/09 08:02:55;;;;;;;14.18;12.63;;;23.00;85.20;;;;;;5042808;28;20037;-88
2021/06/09 08:05:21;;;;;;;19.70;17.05;;;23.10;85.00;;;;;;5030549;28;20032;-88
2021/06/09 08:07:46;;;;;;;15.35;13.85;;;23.20;82.40;;;;;;5035100;28;20374;-88
2021/06/09 08:10:12;;;;;;;15.60;13.95;;;23.30;82.80;;;;;;4998823;28;20025;-88
2021/06/09 08:12:39;;;;;;;14.52;13.13;;;23.30;82.20;;;;;;5024802;28;20385;-88
2021/06/09 08:15:07;;;;;;;14.68;12.88;;;23.40;81.90;;;;;;5018312;28;20049;-88
2021/06/09 08:17:33;;;;;;;16.23;14.68;;;23.50;82.00;;;;;;5051538;28;20043;-87
2021/06/09 08:19:59;;;;;;;14.90;13.43;;;23.60;81.30;;;;;;5051927;28;20028;-88
2021/06/09 08:22:24;;;;;;;14.40;12.90;;;23.60;81.80;;;;;;5034991;28;20029;-88
2021/06/09 08:24:50;;;;;;;14.38;12.93;;;23.70;81.50;;;;;;5053113;28;20021;-88
2021/06/09 08:27:16;;;;;;;15.32;12.88;;;23.80;81.40;;;;;;5054651;28;20435;-88
2021/06/09 08:29:45;;;;;;;15.95;14.35;;;23.90;80.80;;;;;;5056363;28;20044;-88
2021/06/09 08:32:10;;;;;;;19.00;16.95;;;23.90;79.80;;;;;;5051548;28;20029;-88
2021/06/09 08:34:36;;;;;;;18.30;16.40;;;24.00;76.80;;;;;;5015167;28;20040;-88
2021/06/09 08:37:02;;;;;;;16.60;14.93;;;24.10;75.90;;;;;;5029263;28;20025;-88
2021/06/09 08:39:28;;;;;;;12.10;10.80;;;24.10;76.00;;;;;;5055943;28;20025;-88
2021/06/09 08:41:55;;;;;;;11.63;10.43;;;24.10;76.80;;;;;;5004194;28;20035;-88
2021/06/09 08:44:23;;;;;;;13.00;11.70;;;24.20;77.20;;;;;;5052594;28;20125;-89
2021/06/09 08:46:49;;;;;;;11.95;10.75;;;24.30;76.70;;;;;;5055988;28;20024;-89
2021/06/09 08:49:18;;;;;;;11.40;10.30;;;24.30;76.80;;;;;;5053213;28;20402;-89
2021/06/09 08:51:45;;;;;;;14.43;12.45;;;24.40;75.90;;;;;;5065141;28;20021;-88
2021/06/09 08:54:11;;;;;;;14.93;13.52;;;24.50;75.40;;;;;;5031970;28;20116;-89
2021/06/09 08:56:38;;;;;;;14.68;11.50;;;24.60;74.00;;;;;;5032042;28;20049;-89
2021/06/09 08:59:05;;;;;;;12.48;11.18;;;24.60;73.60;;;;;;5018510;28;20045;-88
2021/06/09 09:01:33;;;;;;;12.65;11.35;;;24.70;73.20;;;;;;5064251;28;20027;-89
2021/06/09 09:03:59;;;;;;;12.57;11.27;;;24.70;73.00;;;;;;5023196;28;20032;-88
2021/06/09 09:06:25;;;;;;;11.75;10.50;;;24.80;73.30;;;;;;5062530;28;20025;-88
2021/06/09 09:08:54;;;;;;;11.50;10.40;;;24.90;73.50;;;;;;5015578;28;20042;-89
2021/06/09 09:11:24;;;;;;;14.23;12.82;;;24.90;73.40;;;;;;5058566;28;20123;-88
2021/06/09 09:13:50;;;;;;;14.77;13.27;;;25.00;72.50;;;;;;5054605;28;20094;-89
2021/06/09 09:16:16;;;;;;;11.82;10.63;;;25.10;71.10;;;;;;5051405;28;20549;-89
2021/06/09 09:18:56;;;;;;;11.73;10.50;;;25.20;71.80;;;;;;5051405;28;20071;-89
2021/06/09 09:21:38;;;;;;;12.98;11.70;;;25.20;72.00;;;;;;5056951;28;20384;-89
2021/06/09 09:24:08;;;;;;;13.02;11.73;;;25.30;72.00;;;;;;5057360;28;20028;-88
2021/06/09 09:26:35;;;;;;;10.95;9.85;;;25.30;71.50;;;;;;5045134;28;20021;-89
2021/06/09 09:29:20;;;;;;;13.50;12.10;;;25.40;71.70;;;;;;5034720;28;20029;-89
2021/06/09 09:31:59;;;;;;;10.00;8.88;;;25.50;69.50;;;;;;5038316;28;20380;-89
2021/06/09 09:34:34;;;;;;;8.85;7.75;;;25.50;69.20;;;;;;5038111;28;20036;-88
2021/06/09 09:37:03;;;;;;;8.40;7.22;;;25.50;69.10;;;;;;5062818;28;20017;-89
2021/06/09 09:39:30;;;;;;;10.27;8.05;;;25.60;69.10;;;;;;5034429;28;20044;-89
2021/06/09 09:41:56;;;;;;;9.48;8.55;;;25.60;69.70;;;;;;5034439;28;20462;-89
2021/06/09 09:44:22;;;;;;;10.13;9.13;;;25.70;69.10;;;;;;5047599;28;20127;-89
2021/06/09 09:46:55;;;;;;;11.07;9.98;;;25.80;68.10;;;;;;5031798;28;20028;-89
2021/06/09 09:49:22;;;;;;;10.55;8.65;;;25.80;68.50;;;;;;5047620;28;20470;-89
2021/06/09 09:51:50;;;;;;;11.05;9.88;;;25.90;68.80;;;;;;5052113;28;20028;-88
2021/06/09 09:54:23;;;;;;;11.38;10.02;;;25.90;67.10;;;;;;5062858;28;20028;-89
2021/06/09 09:56:49;;;;;;;10.25;9.25;;;26.00;66.70;;;;;;5054552;28;20064;-89
2021/06/09 09:59:15;;;;;;;9.32;7.45;;;26.00;66.50;;;;;;5034598;28;20391;-89
2021/06/09 10:01:45;;;;;;;8.57;6.80;;;26.00;67.70;;;;;;5019741;28;20036;-89
2021/06/09 10:04:15;;;;;;;10.93;8.13;;;26.10;68.90;;;;;;5034834;28;20386;-89
2021/06/09 10:06:46;;;;;;;8.48;7.57;;;26.20;69.80;;;;;;5054412;28;20043;-89
2021/06/09 10:09:12;;;;;;;10.88;9.05;;;26.30;69.70;;;;;;5054032;28;20620;-89
2021/06/09 10:11:40;;;;;;;9.80;8.27;;;26.40;68.40;;;;;;5054394;28;20111;-89
2021/06/09 10:14:37;;;;;;;10.20;9.20;;;26.50;68.30;;;;;;5051466;28;20199;-89
2021/06/09 10:17:07;;;;;;;10.68;9.57;;;26.50;66.90;;;;;;5066857;28;20024;-89
2021/06/09 10:19:36;;;;;;;9.43;8.20;;;26.50;64.60;;;;;;5054952;28;20025;-89
2021/06/09 10:22:23;;;;;;;8.57;7.72;;;26.60;66.10;;;;;;5054480;28;20557;-89
2021/06/09 10:24:57;;;;;;;8.93;8.02;;;26.60;67.20;;;;;;5040213;28;20160;-89
2021/06/09 10:27:49;;;;;;;8.80;7.95;;;26.70;67.30;;;;;;5054038;28;20044;-89
2021/06/09 10:30:18;;;;;;;10.50;8.68;;;26.80;67.20;;;;;;5053851;28;20055;-89
2021/06/09 10:33:05;;;;;;;9.05;8.10;;;26.80;65.50;;;;;;5069263;28;20424;-89
2021/06/09 10:35:38;;;;;;;10.40;9.25;;;26.80;65.90;;;;;;5072937;28;20029;-89
2021/06/09 10:38:04;;;;;;;8.25;7.45;;;26.90;64.50;;;;;;5056131;28;20029;-89
2021/06/09 10:40:32;;;;;;;8.32;7.25;;;26.90;65.00;;;;;;5017234;28;20028;-89
2021/06/09 10:43:00;;;;;;;11.63;8.20;;;26.90;64.90;;;;;;5022656;28;20059;-89
2021/06/09 10:45:26;;;;;;;6.38;5.22;;;26.90;62.20;;;;;;5056970;28;20343;-89
2021/06/09 10:47:57;;;;;;;5.90;4.85;;;27.00;62.80;;;;;;5059607;28;20106;-89
2021/06/09 10:50:24;;;;;;;6.88;5.88;;;27.00;62.10;;;;;;5069233;28;20040;-89
2021/06/09 10:52:50;;;;;;;6.75;5.85;;;27.00;60.90;;;;;;5054624;28;20032;-88
2021/06/09 10:55:17;;;;;;;7.68;5.85;;;26.90;60.80;;;;;;5055648;28;20461;-88
2021/06/09 10:57:43;;;;;;;5.95;4.93;;;26.90;60.40;;;;;;5063562;28;20029;-89
2021/06/09 11:00:12;;;;;;;7.10;5.28;;;26.90;61.10;;;;;;5038741;28;20127;-89
2021/06/09 11:02:39;;;;;;;6.40;4.88;;;27.00;60.40;;;;;;5064763;28;20024;-88
2021/06/09 11:05:07;;;;;;;5.45;4.13;;;27.00;60.70;;;;;;5037394;28;20041;-89
2021/06/09 11:07:43;;;;;;;6.07;4.68;;;27.10;59.70;;;;;;5035400;28;20079;-88
2021/06/09 11:10:39;;;;;;;7.13;4.82;;;27.10;57.50;;;;;;5053194;28;20029;-88
2021/06/09 11:13:06;;;;;;;7.50;6.60;;;27.20;56.70;;;;;;5061912;28;20037;-88
2021/06/09 11:15:34;;;;;;;9.90;7.85;;;27.30;57.50;;;;;;5022614;28;20045;-88
2021/06/09 11:18:33;;;;;;;10.00;7.35;;;27.30;57.80;;;;;;5006367;28;20049;-88
2021/06/09 11:21:02;;;;;;;6.25;5.60;;;27.40;59.60;;;;;;5052759;28;20127;-89
2021/06/09 11:23:37;;;;;;;6.65;5.55;;;27.40;60.60;;;;;;5045667;28;20480;-89
2021/06/09 11:26:05;;;;;;;9.20;8.13;;;27.50;61.90;;;;;;5041831;28;20120;-89
2021/06/09 11:29:25;;;;;;;7.38;6.45;;;27.60;60.60;;;;;;5051946;28;20097;-88
2021/06/09 11:32:17;;;;;;;8.70;7.40;;;27.70;61.40;;;;;;5066002;28;20032;-88
2021/06/09 11:34:56;;;;;;;10.07;9.07;;;27.70;60.00;;;;;;5059604;28;20107;-89
2021/06/09 11:37:22;;;;;;;8.90;7.77;;;27.70;58.40;;;;;;5038925;28;20116;-88
2021/06/09 11:40:03;;;;;;;9.02;7.40;;;27.60;59.60;;;;;;5035607;28;20596;-89
2021/06/09 11:42:29;;;;;;;8.20;6.88;;;27.60;60.40;;;;;;5043756;28;20115;-89
2021/06/09 11:44:55;;;;;;;9.65;7.90;;;27.60;61.70;;;;;;5021862;28;20132;-89
2021/06/09 11:48:08;;;;;;;6.97;6.28;;;27.70;60.70;;;;;;5032283;28;20124;-88
2021/06/09 11:50:34;;;;;;;7.05;5.88;;;27.70;62.40;;;;;;5056982;28;20178;-89
2021/06/09 11:53:19;;;;;;;8.88;6.68;;;27.80;62.40;;;;;;5035101;28;20518;-88
2021/06/09 11:56:22;;;;;;;7.35;6.40;;;27.90;62.60;;;;;;5043624;28;20033;-86
2021/06/09 11:58:51;;;;;;;8.38;6.90;;;28.00;62.10;;;;;;5067083;28;20044;-89
2021/06/09 12:01:20;;;;;;;7.80;6.63;;;28.10;61.50;;;;;;5061450;28;20029;-88
2021/06/09 12:04:08;;;;;;;8.23;7.03;;;28.10;62.00;;;;;;5051571;28;20032;-88
2021/06/09 12:07:01;;;;;;;9.18;5.90;;;28.20;60.20;;;;;;5046548;28;20032;-89
2021/06/09 12:09:38;;;;;;;9.77;8.27;;;28.30;59.70;;;;;;5038672;28;20435;-88
2021/06/09 12:12:15;;;;;;;7.75;6.50;;;28.20;57.30;;;;;;5052870;28;20040;-88
2021/06/09 12:14:47;;;;;;;6.30;5.60;;;28.30;58.20;;;;;;5034918;28;20041;-88
2021/06/09 12:17:33;;;;;;;6.80;5.70;;;28.30;58.70;;;;;;5050652;28;20470;-88
2021/06/09 12:20:12;;;;;;;7.22;5.47;;;28.30;58.70;;;;;;5052485;28;20431;-88
2021/06/09 12:22:43;;;;;;;7.30;6.05;;;28.30;57.00;;;;;;5051100;28;20497;-88
2021/06/09 12:25:12;;;;;;;8.43;5.28;;;28.30;55.60;;;;;;5050861;28;20025;-88
2021/06/09 12:27:41;;;;;;;7.05;4.85;;;28.40;56.20;;;;;;5065259;28;20036;-88
2021/06/09 12:30:10;;;;;;;7.13;5.88;;;28.40;57.20;;;;;;5034701;28;20508;-88
2021/06/09 12:32:37;;;;;;;6.72;5.20;;;28.40;57.70;;;;;;5053572;28;20017;-89
2021/06/09 12:35:06;;;;;;;8.32;7.00;;;28.50;56.70;;;;;;5033636;28;20129;-89
2021/06/09 12:37:35;;;;;;;6.88;6.18;;;28.50;54.40;;;;;;5051354;28;20025;-89
2021/06/09 12:40:23;;;;;;;5.90;4.60;;;28.50;55.50;;;;;;5041607;28;20390;-89
2021/06/09 12:42:53;;;;;;;6.00;5.25;;;28.60;53.80;;;;;;5050222;28;20021;-89
2021/06/09 12:45:20;;;;;;;5.80;4.70;;;28.60;55.70;;;;;;5051224;28;20041;-89
2021/06/09 12:47:47;;;;;;;5.50;4.75;;;28.60;56.40;;;;;;5018577;28;20382;-89
2021/06/09 12:50:21;;;;;;;5.60;4.32;;;28.70;56.40;;;;;;5012143;28;20053;-88
2021/06/09 12:52:57;;;;;;;5.85;4.90;;;28.80;56.30;;;;;;5062071;28;20020;-89
2021/06/09 12:55:29;;;;;;;8.90;5.65;;;28.90;56.60;;;;;;5052928;28;20473;-89
2021/06/09 12:57:58;;;;;;;6.32;5.72;;;28.90;54.70;;;;;;5044761;28;20036;-89
2021/06/09 13:00:31;;;;;;;6.45;5.10;;;28.90;54.30;;;;;;5050891;28;20025;-89